sensor_id;sensor_type;location;lat;lon;timestamp;temperature;humidity
1179;DHT22;578;48.408;10.004;2023-02-11T00:01:54;-4.90;99.90
1179;DHT22;578;48.408;10.004;2023-02-11T00:04:20;-4.90;99.90
1179;DHT22;578;48.408;10.004;2023-02-11T00:06:47;-4.80;99.90
1179;DHT22;578;48.408;10.004;2023-02-11T00:09:14;-5.00;99.90
1179;DHT22;578;48.408;10.004;2023-02-11T00:11:42;-5.20;99.90
1179;DHT22;578;48.408;10.004;2023-02-11T00:14:09;-5.00;99.90
1179;DHT22;578;48.408;10.004;2023-02-11T00:16:36;-5.20;99.90
1179;DHT22;578;48.408;10.004;2023-02-11T00:19:03;-5.10;99.90
1179;DHT22;578;48.408;10.004;2023-02-11T00:21:31;-5.20;99.90
1179;DHT22;578;48.408;10.004;2023-02-11T00:23:58;-5.20;99.90
1179;DHT22;578;48.408;10.004;2023-02-11T00:26:29;-5.20;99.90
1179;DHT22;578;48.408;10.004;2023-02-11T00:28:58;-5.30;99.90
1179;DHT22;578;48.408;10.004;2023-02-11T00:31:25;-5.30;99.90
1179;DHT22;578;48.408;10.004;2023-02-11T00:33:53;-5.20;99.90
1179;DHT22;578;48.408;10.004;2023-02-11T00:36:21;-5.20;99.90
1179;DHT22;578;48.408;10.004;2023-02-11T00:38:49;-5.10;99.90
1179;DHT22;578;48.408;10.004;2023-02-11T00:41:17;-5.30;99.90
1179;DHT22;578;48.408;10.004;2023-02-11T00:43:44;-5.20;99.90
1179;DHT22;578;48.408;10.004;2023-02-11T00:46:12;-5.10;99.90
1179;DHT22;578;48.408;10.004;2023-02-11T00:48:39;-5.30;99.90
1179;DHT22;578;48.408;10.004;2023-02-11T00:51:06;-5.40;99.90
1179;DHT22;578;48.408;10.004;2023-02-11T00:53:34;-5.40;99.90
1179;DHT22;578;48.408;10.004;2023-02-11T00:56:01;-5.30;99.90
1179;DHT22;578;48.408;10.004;2023-02-11T00:58:28;-5.40;99.90
1179;DHT22;578;48.408;10.004;2023-02-11T01:00:55;-5.20;99.90
1179;DHT22;578;48.408;10.004;2023-02-11T01:03:23;-5.20;99.90
1179;DHT22;578;48.408;10.004;2023-02-11T01:05:50;-5.40;99.90
1179;DHT22;578;48.408;10.004;2023-02-11T01:08:18;-5.40;99.90
1179;DHT22;578;48.408;10.004;2023-02-11T01:10:44;-5.40;99.90
1179;DHT22;578;48.408;10.004;2023-02-11T01:13:11;-5.40;99.90
1179;DHT22;578;48.408;10.004;2023-02-11T01:15:38;-5.30;99.90
1179;DHT22;578;48.408;10.004;2023-02-11T01:18:04;-5.40;99.90
1179;DHT22;578;48.408;10.004;2023-02-11T01:20:33;-5.50;99.90
1179;DHT22;578;48.408;10.004;2023-02-11T01:22:59;-5.30;99.90
1179;DHT22;578;48.408;10.004;2023-02-11T01:25:26;-5.30;99.90
1179;DHT22;578;48.408;10.004;2023-02-11T01:27:53;-5.40;99.90
1179;DHT22;578;48.408;10.004;2023-02-11T01:30:20;-5.50;99.90
1179;DHT22;578;48.408;10.004;2023-02-11T01:32:46;-5.50;99.90
1179;DHT22;578;48.408;10.004;2023-02-11T01:35:13;-5.60;99.90
1179;DHT22;578;48.408;10.004;2023-02-11T01:37:41;-5.40;99.90
1179;DHT22;578;48.408;10.004;2023-02-11T01:40:12;-5.50;99.90
1179;DHT22;578;48.408;10.004;2023-02-11T01:42:39;-5.30;99.90
1179;DHT22;578;48.408;10.004;2023-02-11T01:48:21;-5.60;99.90
1179;DHT22;578;48.408;10.004;2023-02-11T01:50:53;-5.60;99.90
1179;DHT22;578;48.408;10.004;2023-02-11T01:53:22;-5.40;99.90
1179;DHT22;578;48.408;10.004;2023-02-11T01:56:07;-5.30;99.90
1179;DHT22;578;48.408;10.004;2023-02-11T01:58:57;-5.50;99.90
1179;DHT22;578;48.408;10.004;2023-02-11T02:01:25;-5.60;99.90
1179;DHT22;578;48.408;10.004;2023-02-11T02:03:55;-5.60;99.90
1179;DHT22;578;48.408;10.004;2023-02-11T02:06:28;-5.60;99.90
1179;DHT22;578;48.408;10.004;2023-02-11T02:09:02;-5.50;99.90
1179;DHT22;578;48.408;10.004;2023-02-11T02:11:31;-5.60;99.90
1179;DHT22;578;48.408;10.004;2023-02-11T02:13:58;-5.70;99.90
1179;DHT22;578;48.408;10.004;2023-02-11T02:16:29;-5.70;99.90
1179;DHT22;578;48.408;10.004;2023-02-11T02:19:07;-5.60;99.90
1179;DHT22;578;48.408;10.004;2023-02-11T02:21:59;-5.60;99.90
1179;DHT22;578;48.408;10.004;2023-02-11T02:25:04;-5.50;99.90
1179;DHT22;578;48.408;10.004;2023-02-11T02:27:49;-5.50;99.90
1179;DHT22;578;48.408;10.004;2023-02-11T02:30:48;-5.50;99.90
1179;DHT22;578;48.408;10.004;2023-02-11T02:33:30;-5.50;99.90
1179;DHT22;578;48.408;10.004;2023-02-11T02:36:06;-5.60;99.90
1179;DHT22;578;48.408;10.004;2023-02-11T02:38:37;-5.60;99.90
1179;DHT22;578;48.408;10.004;2023-02-11T02:41:09;-5.70;99.90
1179;DHT22;578;48.408;10.004;2023-02-11T02:43:38;-5.70;99.90
1179;DHT22;578;48.408;10.004;2023-02-11T02:46:13;-5.70;99.90
1179;DHT22;578;48.408;10.004;2023-02-11T02:48:43;-5.60;99.90
1179;DHT22;578;48.408;10.004;2023-02-11T02:51:33;-5.70;99.90
1179;DHT22;578;48.408;10.004;2023-02-11T02:57:22;-5.80;99.90
1179;DHT22;578;48.408;10.004;2023-02-11T03:00:04;-5.80;99.90
1179;DHT22;578;48.408;10.004;2023-02-11T03:02:40;-5.70;99.90
1179;DHT22;578;48.408;10.004;2023-02-11T03:05:12;-5.70;99.90
1179;DHT22;578;48.408;10.004;2023-02-11T03:07:46;-5.80;99.90
1179;DHT22;578;48.408;10.004;2023-02-11T03:10:16;-5.70;99.90
1179;DHT22;578;48.408;10.004;2023-02-11T03:12:45;-5.70;99.90
1179;DHT22;578;48.408;10.004;2023-02-11T03:15:14;-5.70;99.90
1179;DHT22;578;48.408;10.004;2023-02-11T03:17:45;-5.50;99.90
1179;DHT22;578;48.408;10.004;2023-02-11T03:20:17;-5.50;99.90
1179;DHT22;578;48.408;10.004;2023-02-11T03:22:48;-5.50;99.90
1179;DHT22;578;48.408;10.004;2023-02-11T03:25:18;-5.60;99.90
1179;DHT22;578;48.408;10.004;2023-02-11T03:27:48;-5.50;99.90
1179;DHT22;578;48.408;10.004;2023-02-11T03:30:20;-5.50;99.90
1179;DHT22;578;48.408;10.004;2023-02-11T03:32:50;-5.50;99.90
1179;DHT22;578;48.408;10.004;2023-02-11T03:35:23;-5.30;99.90
1179;DHT22;578;48.408;10.004;2023-02-11T03:37:56;-5.30;99.90
1179;DHT22;578;48.408;10.004;2023-02-11T03:40:26;-5.30;99.90
1179;DHT22;578;48.408;10.004;2023-02-11T03:42:57;-5.30;99.90
1179;DHT22;578;48.408;10.004;2023-02-11T03:45:25;-5.00;99.90
1179;DHT22;578;48.408;10.004;2023-02-11T03:47:55;-4.90;99.90
1179;DHT22;578;48.408;10.004;2023-02-11T03:50:25;-4.90;99.90
1179;DHT22;578;48.408;10.004;2023-02-11T03:52:54;-4.80;99.90
1179;DHT22;578;48.408;10.004;2023-02-11T03:55:22;-4.90;99.90
1179;DHT22;578;48.408;10.004;2023-02-11T03:57:51;-4.90;99.90
1179;DHT22;578;48.408;10.004;2023-02-11T04:00:18;-5.00;99.90
1179;DHT22;578;48.408;10.004;2023-02-11T04:02:45;-5.10;99.90
1179;DHT22;578;48.408;10.004;2023-02-11T04:05:13;-5.10;99.90
1179;DHT22;578;48.408;10.004;2023-02-11T04:07:42;-5.00;99.90
1179;DHT22;578;48.408;10.004;2023-02-11T04:10:10;-5.10;99.90
1179;DHT22;578;48.408;10.004;2023-02-11T04:12:37;-5.00;99.90
1179;DHT22;578;48.408;10.004;2023-02-11T04:15:05;-4.90;99.90
1179;DHT22;578;48.408;10.004;2023-02-11T04:17:31;-5.00;99.90
1179;DHT22;578;48.408;10.004;2023-02-11T04:19:58;-5.00;99.90
1179;DHT22;578;48.408;10.004;2023-02-11T04:22:25;-4.90;99.90
1179;DHT22;578;48.408;10.004;2023-02-11T04:24:53;-4.60;99.90
1179;DHT22;578;48.408;10.004;2023-02-11T04:27:19;-4.60;99.90
1179;DHT22;578;48.408;10.004;2023-02-11T04:29:46;-4.60;99.90
1179;DHT22;578;48.408;10.004;2023-02-11T04:32:13;-4.60;99.90
1179;DHT22;578;48.408;10.004;2023-02-11T04:34:40;-4.50;99.90
1179;DHT22;578;48.408;10.004;2023-02-11T04:37:07;-4.40;99.90
1179;DHT22;578;48.408;10.004;2023-02-11T04:39:34;-4.40;99.90
1179;DHT22;578;48.408;10.004;2023-02-11T04:42:02;-4.40;99.90
1179;DHT22;578;48.408;10.004;2023-02-11T04:44:28;-4.40;99.90
1179;DHT22;578;48.408;10.004;2023-02-11T04:46:55;-4.50;99.90
1179;DHT22;578;48.408;10.004;2023-02-11T04:49:22;-4.60;99.90
1179;DHT22;578;48.408;10.004;2023-02-11T04:51:49;-4.50;99.90
1179;DHT22;578;48.408;10.004;2023-02-11T04:54:15;-4.40;99.90
1179;DHT22;578;48.408;10.004;2023-02-11T04:56:42;-4.50;99.90
1179;DHT22;578;48.408;10.004;2023-02-11T04:59:11;-4.50;99.90
1179;DHT22;578;48.408;10.004;2023-02-11T05:01:38;-4.40;99.90
1179;DHT22;578;48.408;10.004;2023-02-11T05:04:04;-4.30;99.90
1179;DHT22;578;48.408;10.004;2023-02-11T05:06:31;-4.20;99.90
1179;DHT22;578;48.408;10.004;2023-02-11T05:08:58;-4.20;99.90
1179;DHT22;578;48.408;10.004;2023-02-11T05:11:25;-4.20;99.90
1179;DHT22;578;48.408;10.004;2023-02-11T05:13:52;-4.10;99.90
1179;DHT22;578;48.408;10.004;2023-02-11T05:16:20;-4.00;99.90
1179;DHT22;578;48.408;10.004;2023-02-11T05:18:46;-3.90;99.90
1179;DHT22;578;48.408;10.004;2023-02-11T05:21:16;-3.80;99.90
1179;DHT22;578;48.408;10.004;2023-02-11T05:23:43;-3.80;99.90
1179;DHT22;578;48.408;10.004;2023-02-11T05:26:11;-3.80;99.90
1179;DHT22;578;48.408;10.004;2023-02-11T05:28:38;-3.60;99.90
1179;DHT22;578;48.408;10.004;2023-02-11T05:31:05;-3.50;99.90
1179;DHT22;578;48.408;10.004;2023-02-11T05:33:33;-3.50;99.90
1179;DHT22;578;48.408;10.004;2023-02-11T05:36:00;-3.50;99.90
1179;DHT22;578;48.408;10.004;2023-02-11T05:38:27;-3.40;99.90
1179;DHT22;578;48.408;10.004;2023-02-11T05:40:54;-3.40;99.90
1179;DHT22;578;48.408;10.004;2023-02-11T05:43:21;-3.40;99.90
1179;DHT22;578;48.408;10.004;2023-02-11T05:45:47;-3.40;99.90
1179;DHT22;578;48.408;10.004;2023-02-11T05:48:14;-3.30;99.90
1179;DHT22;578;48.408;10.004;2023-02-11T05:50:42;-3.20;99.90
1179;DHT22;578;48.408;10.004;2023-02-11T05:53:09;-3.20;99.90
1179;DHT22;578;48.408;10.004;2023-02-11T05:55:36;-3.20;99.90
1179;DHT22;578;48.408;10.004;2023-02-11T05:58:04;-3.20;99.90
1179;DHT22;578;48.408;10.004;2023-02-11T06:00:31;-3.20;99.90
1179;DHT22;578;48.408;10.004;2023-02-11T06:02:57;-3.30;99.90
1179;DHT22;578;48.408;10.004;2023-02-11T06:05:24;-3.20;99.90
1179;DHT22;578;48.408;10.004;2023-02-11T06:07:52;-3.10;99.90
1179;DHT22;578;48.408;10.004;2023-02-11T06:10:19;-3.10;99.90
1179;DHT22;578;48.408;10.004;2023-02-11T06:12:46;-3.10;99.90
1179;DHT22;578;48.408;10.004;2023-02-11T06:15:13;-3.10;99.90
1179;DHT22;578;48.408;10.004;2023-02-11T06:17:39;-3.10;99.90
1179;DHT22;578;48.408;10.004;2023-02-11T06:20:07;-3.10;99.90
1179;DHT22;578;48.408;10.004;2023-02-11T06:22:35;-3.00;99.90
1179;DHT22;578;48.408;10.004;2023-02-11T06:25:03;-2.90;99.90
1179;DHT22;578;48.408;10.004;2023-02-11T06:27:30;-2.80;99.90
1179;DHT22;578;48.408;10.004;2023-02-11T06:29:57;-2.60;99.90
1179;DHT22;578;48.408;10.004;2023-02-11T06:32:24;-2.50;99.90
1179;DHT22;578;48.408;10.004;2023-02-11T06:34:51;-2.50;99.90
1179;DHT22;578;48.408;10.004;2023-02-11T06:37:18;-2.40;99.90
1179;DHT22;578;48.408;10.004;2023-02-11T06:39:45;-2.40;99.90
1179;DHT22;578;48.408;10.004;2023-02-11T06:42:13;-2.30;99.90
1179;DHT22;578;48.408;10.004;2023-02-11T06:44:39;-2.30;99.90
1179;DHT22;578;48.408;10.004;2023-02-11T06:47:06;-2.30;99.90
1179;DHT22;578;48.408;10.004;2023-02-11T06:49:33;-2.20;99.90
1179;DHT22;578;48.408;10.004;2023-02-11T06:51:59;-2.30;99.90
1179;DHT22;578;48.408;10.004;2023-02-11T06:54:26;-2.20;99.90
1179;DHT22;578;48.408;10.004;2023-02-11T06:56:53;-2.20;99.90
1179;DHT22;578;48.408;10.004;2023-02-11T06:59:21;-2.00;99.90
1179;DHT22;578;48.408;10.004;2023-02-11T07:01:47;-2.00;99.90
1179;DHT22;578;48.408;10.004;2023-02-11T07:04:14;-2.00;99.90
1179;DHT22;578;48.408;10.004;2023-02-11T07:06:41;-2.00;99.90
1179;DHT22;578;48.408;10.004;2023-02-11T07:09:08;-2.00;99.90
1179;DHT22;578;48.408;10.004;2023-02-11T07:11:35;-2.00;99.90
1179;DHT22;578;48.408;10.004;2023-02-11T07:14:03;-2.00;99.90
1179;DHT22;578;48.408;10.004;2023-02-11T07:16:31;-1.90;99.90
1179;DHT22;578;48.408;10.004;2023-02-11T07:18:58;-1.80;99.90
1179;DHT22;578;48.408;10.004;2023-02-11T07:21:25;-1.70;99.90
1179;DHT22;578;48.408;10.004;2023-02-11T07:23:52;-1.60;99.90
1179;DHT22;578;48.408;10.004;2023-02-11T07:26:21;-1.50;99.90
1179;DHT22;578;48.408;10.004;2023-02-11T07:28:49;-1.50;99.90
1179;DHT22;578;48.408;10.004;2023-02-11T07:31:17;-1.40;99.90
1179;DHT22;578;48.408;10.004;2023-02-11T07:33:47;-1.30;99.90
1179;DHT22;578;48.408;10.004;2023-02-11T07:36:15;-1.30;99.90
1179;DHT22;578;48.408;10.004;2023-02-11T07:38:42;-1.20;99.90
1179;DHT22;578;48.408;10.004;2023-02-11T07:41:10;-1.20;99.90
1179;DHT22;578;48.408;10.004;2023-02-11T07:43:38;-1.00;99.90
1179;DHT22;578;48.408;10.004;2023-02-11T07:46:06;-0.80;99.90
1179;DHT22;578;48.408;10.004;2023-02-11T07:48:33;-0.70;99.90
1179;DHT22;578;48.408;10.004;2023-02-11T07:51:07;-0.50;99.90
1179;DHT22;578;48.408;10.004;2023-02-11T07:53:33;-0.30;99.90
1179;DHT22;578;48.408;10.004;2023-02-11T07:56:01;-0.10;99.90
1179;DHT22;578;48.408;10.004;2023-02-11T07:58:28;-0.10;99.90
1179;DHT22;578;48.408;10.004;2023-02-11T08:00:56;0.00;99.90
1179;DHT22;578;48.408;10.004;2023-02-11T08:03:25;0.30;99.90
1179;DHT22;578;48.408;10.004;2023-02-11T08:05:52;1.30;99.90
1179;DHT22;578;48.408;10.004;2023-02-11T08:08:20;2.40;99.90
1179;DHT22;578;48.408;10.004;2023-02-11T08:10:47;3.20;99.90
1179;DHT22;578;48.408;10.004;2023-02-11T08:13:13;3.10;97.50
1179;DHT22;578;48.408;10.004;2023-02-11T08:15:40;2.90;98.20
1179;DHT22;578;48.408;10.004;2023-02-11T08:18:07;2.20;98.30
1179;DHT22;578;48.408;10.004;2023-02-11T08:20:34;1.90;98.80
1179;DHT22;578;48.408;10.004;2023-02-11T08:23:00;2.20;98.30
1179;DHT22;578;48.408;10.004;2023-02-11T08:25:28;1.90;99.00
1179;DHT22;578;48.408;10.004;2023-02-11T08:27:55;2.10;98.90
1179;DHT22;578;48.408;10.004;2023-02-11T08:30:22;2.80;97.50
1179;DHT22;578;48.408;10.004;2023-02-11T08:32:49;2.80;96.50
1179;DHT22;578;48.408;10.004;2023-02-11T08:35:16;2.60;97.00
1179;DHT22;578;48.408;10.004;2023-02-11T08:37:43;2.00;95.20
1179;DHT22;578;48.408;10.004;2023-02-11T08:40:10;1.60;96.00
1179;DHT22;578;48.408;10.004;2023-02-11T08:42:38;1.50;97.70
1179;DHT22;578;48.408;10.004;2023-02-11T08:45:06;4.20;95.60
1179;DHT22;578;48.408;10.004;2023-02-11T08:47:32;4.60;89.60
1179;DHT22;578;48.408;10.004;2023-02-11T08:49:59;5.60;86.70
1179;DHT22;578;48.408;10.004;2023-02-11T08:52:26;6.40;77.50
1179;DHT22;578;48.408;10.004;2023-02-11T08:54:53;6.40;68.60
1179;DHT22;578;48.408;10.004;2023-02-11T08:57:19;4.70;71.40
1179;DHT22;578;48.408;10.004;2023-02-11T08:59:47;3.90;76.20
1179;DHT22;578;48.408;10.004;2023-02-11T09:02:14;3.60;83.10
1179;DHT22;578;48.408;10.004;2023-02-11T09:04:41;3.20;85.60
1179;DHT22;578;48.408;10.004;2023-02-11T09:07:07;3.00;88.00
1179;DHT22;578;48.408;10.004;2023-02-11T09:09:34;2.70;90.70
1179;DHT22;578;48.408;10.004;2023-02-11T09:12:01;2.50;91.20
1179;DHT22;578;48.408;10.004;2023-02-11T09:14:27;2.10;92.10
1179;DHT22;578;48.408;10.004;2023-02-11T09:16:55;2.00;93.60
1179;DHT22;578;48.408;10.004;2023-02-11T09:19:22;1.70;94.90
1179;DHT22;578;48.408;10.004;2023-02-11T09:21:49;1.70;95.60
1179;DHT22;578;48.408;10.004;2023-02-11T09:24:16;1.80;96.00
1179;DHT22;578;48.408;10.004;2023-02-11T09:26:43;2.20;97.10
1179;DHT22;578;48.408;10.004;2023-02-11T09:29:10;5.00;94.80
1179;DHT22;578;48.408;10.004;2023-02-11T09:31:37;6.00;88.40
1179;DHT22;578;48.408;10.004;2023-02-11T09:34:05;5.90;79.80
1179;DHT22;578;48.408;10.004;2023-02-11T09:36:34;4.10;84.10
1179;DHT22;578;48.408;10.004;2023-02-11T09:39:02;4.10;87.90
1179;DHT22;578;48.408;10.004;2023-02-11T09:41:38;4.30;88.40
1179;DHT22;578;48.408;10.004;2023-02-11T09:44:15;4.50;88.80
1179;DHT22;578;48.408;10.004;2023-02-11T09:46:42;4.70;83.40
1179;DHT22;578;48.408;10.004;2023-02-11T09:49:17;4.60;85.30
1179;DHT22;578;48.408;10.004;2023-02-11T09:51:47;5.50;84.50
1179;DHT22;578;48.408;10.004;2023-02-11T09:54:19;5.80;80.60
1179;DHT22;578;48.408;10.004;2023-02-11T09:56:46;5.90;79.00
1179;DHT22;578;48.408;10.004;2023-02-11T09:59:14;5.00;79.50
1179;DHT22;578;48.408;10.004;2023-02-11T10:01:46;5.00;80.30
1179;DHT22;578;48.408;10.004;2023-02-11T10:04:23;5.30;81.80
1179;DHT22;578;48.408;10.004;2023-02-11T10:06:54;5.50;80.80
1179;DHT22;578;48.408;10.004;2023-02-11T10:09:44;5.20;79.10
1179;DHT22;578;48.408;10.004;2023-02-11T10:12:30;5.00;82.40
1179;DHT22;578;48.408;10.004;2023-02-11T10:15:12;4.80;85.60
1179;DHT22;578;48.408;10.004;2023-02-11T10:17:46;4.80;85.60
1179;DHT22;578;48.408;10.004;2023-02-11T10:20:24;4.50;86.00
1179;DHT22;578;48.408;10.004;2023-02-11T10:22:58;4.20;89.10
1179;DHT22;578;48.408;10.004;2023-02-11T10:25:29;4.10;89.70
1179;DHT22;578;48.408;10.004;2023-02-11T10:28:00;4.20;89.20
1179;DHT22;578;48.408;10.004;2023-02-11T10:30:30;4.40;90.70
1179;DHT22;578;48.408;10.004;2023-02-11T10:33:01;4.60;87.00
1179;DHT22;578;48.408;10.004;2023-02-11T10:35:31;5.10;87.50
1179;DHT22;578;48.408;10.004;2023-02-11T10:37:58;5.20;84.80
1179;DHT22;578;48.408;10.004;2023-02-11T10:40:27;4.90;86.20
1179;DHT22;578;48.408;10.004;2023-02-11T10:42:56;4.70;85.80
1179;DHT22;578;48.408;10.004;2023-02-11T10:45:29;4.40;89.00
1179;DHT22;578;48.408;10.004;2023-02-11T10:47:57;4.20;90.30
1179;DHT22;578;48.408;10.004;2023-02-11T10:50:26;4.20;91.40
1179;DHT22;578;48.408;10.004;2023-02-11T10:53:11;4.30;90.70
1179;DHT22;578;48.408;10.004;2023-02-11T10:55:38;4.40;90.20
1179;DHT22;578;48.408;10.004;2023-02-11T10:58:23;4.50;90.00
1179;DHT22;578;48.408;10.004;2023-02-11T11:00:52;4.70;90.70
1179;DHT22;578;48.408;10.004;2023-02-11T11:03:20;4.70;90.20
1179;DHT22;578;48.408;10.004;2023-02-11T11:05:49;4.90;89.30
1179;DHT22;578;48.408;10.004;2023-02-11T11:08:18;4.90;90.10
1179;DHT22;578;48.408;10.004;2023-02-11T11:10:46;4.90;89.80
1179;DHT22;578;48.408;10.004;2023-02-11T11:13:25;4.90;89.30
1179;DHT22;578;48.408;10.004;2023-02-11T11:16:15;5.40;90.30
1179;DHT22;578;48.408;10.004;2023-02-11T11:18:43;5.40;87.70
1179;DHT22;578;48.408;10.004;2023-02-11T11:21:13;5.50;85.40
1179;DHT22;578;48.408;10.004;2023-02-11T11:23:47;5.50;85.10
1179;DHT22;578;48.408;10.004;2023-02-11T11:26:15;5.30;84.50
1179;DHT22;578;48.408;10.004;2023-02-11T11:28:52;5.40;85.70
1179;DHT22;578;48.408;10.004;2023-02-11T11:31:22;5.20;84.30
1179;DHT22;578;48.408;10.004;2023-02-11T11:33:52;5.50;83.70
1179;DHT22;578;48.408;10.004;2023-02-11T11:36:22;5.40;83.10
1179;DHT22;578;48.408;10.004;2023-02-11T11:38:53;5.70;82.90
1179;DHT22;578;48.408;10.004;2023-02-11T11:41:25;5.80;82.60
1179;DHT22;578;48.408;10.004;2023-02-11T11:44:01;5.90;81.80
1179;DHT22;578;48.408;10.004;2023-02-11T11:46:32;5.90;81.80
1179;DHT22;578;48.408;10.004;2023-02-11T11:49:16;5.90;81.50
1179;DHT22;578;48.408;10.004;2023-02-11T11:51:50;5.70;82.70
1179;DHT22;578;48.408;10.004;2023-02-11T11:54:23;5.80;82.60
1179;DHT22;578;48.408;10.004;2023-02-11T11:56:54;5.80;82.30
1179;DHT22;578;48.408;10.004;2023-02-11T11:59:23;6.00;81.70
1179;DHT22;578;48.408;10.004;2023-02-11T12:02:17;6.00;83.00
1179;DHT22;578;48.408;10.004;2023-02-11T12:05:06;6.10;83.90
1179;DHT22;578;48.408;10.004;2023-02-11T12:07:44;6.30;82.70
1179;DHT22;578;48.408;10.004;2023-02-11T12:10:43;6.40;81.40
1179;DHT22;578;48.408;10.004;2023-02-11T12:13:24;6.20;81.30
1179;DHT22;578;48.408;10.004;2023-02-11T12:16:04;6.50;81.90
1179;DHT22;578;48.408;10.004;2023-02-11T12:18:46;6.40;81.30
1179;DHT22;578;48.408;10.004;2023-02-11T12:21:37;6.40;80.70
1179;DHT22;578;48.408;10.004;2023-02-11T12:24:14;6.50;80.10
1179;DHT22;578;48.408;10.004;2023-02-11T12:26:50;6.60;81.40
1179;DHT22;578;48.408;10.004;2023-02-11T12:29:28;6.60;82.00
1179;DHT22;578;48.408;10.004;2023-02-11T12:32:08;6.60;82.40
1179;DHT22;578;48.408;10.004;2023-02-11T12:34:52;6.70;81.90
1179;DHT22;578;48.408;10.004;2023-02-11T12:37:34;6.70;81.50
1179;DHT22;578;48.408;10.004;2023-02-11T12:40:13;6.90;80.00
1179;DHT22;578;48.408;10.004;2023-02-11T12:42:59;6.90;79.20
1179;DHT22;578;48.408;10.004;2023-02-11T12:45:57;6.90;80.10
1179;DHT22;578;48.408;10.004;2023-02-11T12:49:08;6.90;78.50
1179;DHT22;578;48.408;10.004;2023-02-11T12:51:54;6.90;79.60
1179;DHT22;578;48.408;10.004;2023-02-11T12:54:28;6.80;78.90
1179;DHT22;578;48.408;10.004;2023-02-11T12:56:59;7.10;80.50
1179;DHT22;578;48.408;10.004;2023-02-11T12:59:37;7.20;78.00
1179;DHT22;578;48.408;10.004;2023-02-11T13:02:16;7.20;76.20
1179;DHT22;578;48.408;10.004;2023-02-11T13:04:48;7.20;75.90
1179;DHT22;578;48.408;10.004;2023-02-11T13:07:22;7.30;76.20
1179;DHT22;578;48.408;10.004;2023-02-11T13:09:55;7.20;76.70
1179;DHT22;578;48.408;10.004;2023-02-11T13:12:28;7.30;76.20
1179;DHT22;578;48.408;10.004;2023-02-11T13:15:14;7.40;74.80
1179;DHT22;578;48.408;10.004;2023-02-11T13:17:47;7.40;74.90
1179;DHT22;578;48.408;10.004;2023-02-11T13:20:23;7.40;75.90
1179;DHT22;578;48.408;10.004;2023-02-11T13:22:57;7.40;74.50
1179;DHT22;578;48.408;10.004;2023-02-11T13:25:29;7.50;74.20
1179;DHT22;578;48.408;10.004;2023-02-11T13:27:59;7.40;73.80
1179;DHT22;578;48.408;10.004;2023-02-11T13:30:31;7.40;74.60
1179;DHT22;578;48.408;10.004;2023-02-11T13:35:48;7.40;73.30
1179;DHT22;578;48.408;10.004;2023-02-11T13:38:35;7.20;76.10
1179;DHT22;578;48.408;10.004;2023-02-11T13:41:04;7.30;75.70
1179;DHT22;578;48.408;10.004;2023-02-11T13:43:33;7.30;74.90
1179;DHT22;578;48.408;10.004;2023-02-11T13:46:04;7.30;76.20
1179;DHT22;578;48.408;10.004;2023-02-11T13:48:33;7.30;76.50
1179;DHT22;578;48.408;10.004;2023-02-11T13:51:04;7.40;75.50
1179;DHT22;578;48.408;10.004;2023-02-11T13:53:44;7.40;74.70
1179;DHT22;578;48.408;10.004;2023-02-11T13:56:22;7.40;74.60
1179;DHT22;578;48.408;10.004;2023-02-11T13:58:50;7.40;75.20
1179;DHT22;578;48.408;10.004;2023-02-11T14:01:39;7.30;76.90
1179;DHT22;578;48.408;10.004;2023-02-11T14:04:20;7.30;75.10
1179;DHT22;578;48.408;10.004;2023-02-11T14:07:25;7.20;76.60
1179;DHT22;578;48.408;10.004;2023-02-11T14:10:48;7.30;77.90
1179;DHT22;578;48.408;10.004;2023-02-11T14:13:22;7.30;77.00
1179;DHT22;578;48.408;10.004;2023-02-11T14:16:03;7.30;77.30
1179;DHT22;578;48.408;10.004;2023-02-11T14:19:01;7.20;76.70
1179;DHT22;578;48.408;10.004;2023-02-11T14:21:33;7.20;77.40
1179;DHT22;578;48.408;10.004;2023-02-11T14:27:08;7.00;78.80
1179;DHT22;578;48.408;10.004;2023-02-11T14:29:40;7.10;79.70
1179;DHT22;578;48.408;10.004;2023-02-11T14:32:14;7.10;77.30
1179;DHT22;578;48.408;10.004;2023-02-11T14:34:52;7.10;77.50
1179;DHT22;578;48.408;10.004;2023-02-11T14:37:32;7.20;75.20
1179;DHT22;578;48.408;10.004;2023-02-11T14:40:15;7.00;77.00
1179;DHT22;578;48.408;10.004;2023-02-11T14:42:45;7.00;79.20
1179;DHT22;578;48.408;10.004;2023-02-11T14:45:17;7.10;75.60
1179;DHT22;578;48.408;10.004;2023-02-11T14:47:49;7.00;77.50
1179;DHT22;578;48.408;10.004;2023-02-11T14:50:21;7.00;78.00
1179;DHT22;578;48.408;10.004;2023-02-11T14:52:50;7.10;76.70
1179;DHT22;578;48.408;10.004;2023-02-11T14:55:29;7.10;77.90
1179;DHT22;578;48.408;10.004;2023-02-11T14:58:10;7.00;77.60
1179;DHT22;578;48.408;10.004;2023-02-11T15:00:50;6.90;78.30
1179;DHT22;578;48.408;10.004;2023-02-11T15:03:29;6.90;80.00
1179;DHT22;578;48.408;10.004;2023-02-11T15:05:58;6.90;80.90
1179;DHT22;578;48.408;10.004;2023-02-11T15:08:26;6.80;80.70
1179;DHT22;578;48.408;10.004;2023-02-11T15:10:54;6.90;78.30
1179;DHT22;578;48.408;10.004;2023-02-11T15:13:23;6.90;78.50
1179;DHT22;578;48.408;10.004;2023-02-11T15:15:58;6.80;79.70
1179;DHT22;578;48.408;10.004;2023-02-11T15:18:31;6.70;80.50
1179;DHT22;578;48.408;10.004;2023-02-11T15:21:00;6.70;79.50
1179;DHT22;578;48.408;10.004;2023-02-11T15:23:28;6.80;76.40
1179;DHT22;578;48.408;10.004;2023-02-11T15:25:55;6.70;78.10
1179;DHT22;578;48.408;10.004;2023-02-11T15:28:30;6.70;77.10
1179;DHT22;578;48.408;10.004;2023-02-11T15:31:02;6.70;77.60
1179;DHT22;578;48.408;10.004;2023-02-11T15:33:29;6.50;79.00
1179;DHT22;578;48.408;10.004;2023-02-11T15:35:57;6.50;79.50
1179;DHT22;578;48.408;10.004;2023-02-11T15:38:26;6.50;78.70
1179;DHT22;578;48.408;10.004;2023-02-11T15:40:56;6.40;80.80
1179;DHT22;578;48.408;10.004;2023-02-11T15:43:23;6.50;80.10
1179;DHT22;578;48.408;10.004;2023-02-11T15:45:57;6.30;82.00
1179;DHT22;578;48.408;10.004;2023-02-11T15:48:32;6.30;81.30
1179;DHT22;578;48.408;10.004;2023-02-11T15:51:11;6.10;82.50
1179;DHT22;578;48.408;10.004;2023-02-11T15:53:47;5.90;85.30
1179;DHT22;578;48.408;10.004;2023-02-11T15:56:19;5.70;86.00
1179;DHT22;578;48.408;10.004;2023-02-11T15:58:49;5.60;87.20
1179;DHT22;578;48.408;10.004;2023-02-11T16:01:17;5.50;88.10
1179;DHT22;578;48.408;10.004;2023-02-11T16:03:48;5.40;89.30
1179;DHT22;578;48.408;10.004;2023-02-11T16:06:18;5.30;89.20
1179;DHT22;578;48.408;10.004;2023-02-11T16:09:04;5.10;90.80
1179;DHT22;578;48.408;10.004;2023-02-11T16:11:32;5.00;91.10
1179;DHT22;578;48.408;10.004;2023-02-11T16:14:00;5.00;91.40
1179;DHT22;578;48.408;10.004;2023-02-11T16:16:30;4.80;92.20
1179;DHT22;578;48.408;10.004;2023-02-11T16:18:58;4.80;92.90
1179;DHT22;578;48.408;10.004;2023-02-11T16:21:29;4.50;94.60
1179;DHT22;578;48.408;10.004;2023-02-11T16:23:58;4.20;96.10
1179;DHT22;578;48.408;10.004;2023-02-11T16:26:31;3.90;97.80
1179;DHT22;578;48.408;10.004;2023-02-11T16:29:06;4.10;99.40
1179;DHT22;578;48.408;10.004;2023-02-11T16:31:35;3.90;99.60
1179;DHT22;578;48.408;10.004;2023-02-11T16:34:03;3.60;99.90
1179;DHT22;578;48.408;10.004;2023-02-11T16:36:31;3.40;99.90
1179;DHT22;578;48.408;10.004;2023-02-11T16:38:58;3.20;99.90
1179;DHT22;578;48.408;10.004;2023-02-11T16:41:24;3.10;99.90
1179;DHT22;578;48.408;10.004;2023-02-11T16:43:56;3.10;99.90
1179;DHT22;578;48.408;10.004;2023-02-11T16:46:23;2.90;99.90
1179;DHT22;578;48.408;10.004;2023-02-11T16:48:51;2.80;99.90